createdAt,value
2018-05-10T00:00:44.347Z,989.42
2018-05-10T00:01:54.433Z,989.4
2018-05-10T00:03:04.257Z,989.43
2018-05-10T00:04:14.400Z,989.44
2018-05-10T00:05:24.480Z,989.46
2018-05-10T00:06:34.316Z,989.41
2018-05-10T00:07:44.182Z,989.38
2018-05-10T00:08:54.565Z,989.39
2018-05-10T00:10:04.699Z,989.37
2018-05-10T00:11:14.515Z,989.36
2018-05-10T00:12:24.600Z,989.37
2018-05-10T00:13:34.678Z,989.35
2018-05-10T00:14:44.776Z,989.3
2018-05-10T00:15:54.656Z,989.3
2018-05-10T00:17:04.750Z,989.3
2018-05-10T00:18:14.823Z,989.27
2018-05-10T00:19:24.655Z,989.27
2018-05-10T00:20:34.735Z,989.29
2018-05-10T00:21:44.847Z,989.26
2018-05-10T00:22:54.662Z,989.29
2018-05-10T00:24:04.731Z,989.25
2018-05-10T00:25:14.823Z,989.25
2018-05-10T00:26:24.890Z,989.26
2018-05-10T00:27:35.108Z,989.31
2018-05-10T00:28:45.192Z,989.31
2018-05-10T00:29:55.272Z,989.32
2018-05-10T00:31:05.344Z,989.32
2018-05-10T00:32:15.162Z,989.35
2018-05-10T00:33:25.276Z,989.27
2018-05-10T00:34:35.348Z,989.28
2018-05-10T00:35:45.414Z,989.23
2018-05-10T00:36:55.504Z,989.26
2018-05-10T00:38:05.582Z,989.23
2018-05-10T00:39:15.452Z,989.22
2018-05-10T00:40:25.535Z,989.22
2018-05-10T00:41:35.356Z,989.18
2018-05-10T00:42:45.421Z,989.21
2018-05-10T00:43:55.487Z,989.17
2018-05-10T00:45:05.623Z,989.2
2018-05-10T00:46:15.436Z,989.21
2018-05-10T00:47:25.262Z,989.2
2018-05-10T00:48:35.334Z,989.24
2018-05-10T00:49:45.139Z,989.2
2018-05-10T00:50:55.255Z,989.21
2018-05-10T00:52:05.443Z,989.19
2018-05-10T00:53:15.266Z,989.17
2018-05-10T00:54:25.072Z,989.17
2018-05-10T00:55:34.628Z,989.16
2018-05-10T00:56:44.737Z,989.19
2018-05-10T00:57:54.808Z,989.17
2018-05-10T00:59:04.644Z,989.15
2018-05-10T01:00:14.706Z,989.16
2018-05-10T01:01:24.804Z,989.12
2018-05-10T01:02:34.896Z,989.16
2018-05-10T01:03:44.725Z,989.14
2018-05-10T01:04:54.569Z,989.14
2018-05-10T01:06:04.942Z,989.14
2018-05-10T01:07:15.035Z,989.17
2018-05-10T01:08:25.153Z,989.1
2018-05-10T01:09:34.704Z,989.14
2018-05-10T01:10:44.789Z,989.19
2018-05-10T01:11:54.887Z,989.23
2018-05-10T01:13:04.716Z,989.24
2018-05-10T01:14:14.578Z,989.24
2018-05-10T01:15:24.120Z,989.22
2018-05-10T01:16:34.194Z,989.21
2018-05-10T01:17:44.278Z,989.18
2018-05-10T01:18:54.100Z,989.2
2018-05-10T01:20:03.966Z,989.24
2018-05-10T01:21:13.776Z,989.26
2018-05-10T01:22:23.580Z,989.3
2018-05-10T01:23:33.372Z,989.29
2018-05-10T01:24:43.177Z,989.25
2018-05-10T01:25:53.309Z,989.26
2018-05-10T01:27:03.136Z,989.25
2018-05-10T01:28:12.955Z,989.24
2018-05-10T01:29:23.033Z,989.22
2018-05-10T01:30:33.139Z,989.25
2018-05-10T01:31:43.008Z,989.24
2018-05-10T01:32:53.099Z,989.21
2018-05-10T01:34:03.180Z,989.17
2018-05-10T01:35:12.742Z,989.18
2018-05-10T01:36:22.565Z,989.13
2018-05-10T01:37:32.655Z,989.18
2018-05-10T01:38:42.464Z,989.09
2018-05-10T01:39:52.290Z,989.07
2018-05-10T01:41:02.113Z,989.13
2018-05-10T01:42:12.193Z,989.11
2018-05-10T01:43:22.050Z,989.12
2018-05-10T01:44:32.124Z,989.17
2018-05-10T01:45:41.964Z,989.2
2018-05-10T01:46:51.785Z,989.23
2018-05-10T01:48:01.594Z,989.19
2018-05-10T01:49:11.657Z,989.26
2018-05-10T01:50:21.725Z,989.24
2018-05-10T01:51:31.537Z,989.3
2018-05-10T01:52:41.689Z,989.27
2018-05-10T01:53:51.776Z,989.24
2018-05-10T01:55:01.850Z,989.26
2018-05-10T01:56:11.660Z,989.25
2018-05-10T01:57:21.209Z,989.24
2018-05-10T01:58:31.036Z,989.21
2018-05-10T01:59:40.834Z,989.25
2018-05-10T02:00:50.692Z,989.21
2018-05-10T02:02:00.773Z,989.23
2018-05-10T02:03:10.595Z,989.28
2018-05-10T02:04:20.400Z,989.3
2018-05-10T02:05:30.463Z,989.29
2018-05-10T02:06:40.531Z,989.26
2018-05-10T02:07:50.606Z,989.32
2018-05-10T02:09:00.690Z,989.31
2018-05-10T02:10:10.501Z,989.27
2018-05-10T02:11:20.403Z,989.28
2018-05-10T02:12:30.243Z,989.26
2018-05-10T02:13:40.323Z,989.24
2018-05-10T02:14:50.223Z,989.26
2018-05-10T02:16:00.395Z,989.27
2018-05-10T02:17:10.476Z,989.28
2018-05-10T02:18:20.347Z,989.28
2018-05-10T02:19:30.424Z,989.31
2018-05-10T02:20:40.519Z,989.34
2018-05-10T02:21:50.608Z,989.34
2018-05-10T02:23:00.422Z,989.36
2018-05-10T02:24:10.487Z,989.34
2018-05-10T02:25:20.279Z,989.35
2018-05-10T02:26:30.353Z,989.31
2018-05-10T02:27:40.419Z,989.24
2018-05-10T02:28:50.505Z,989.3
2018-05-10T02:30:00.588Z,989.32
2018-05-10T02:31:10.772Z,989.32
2018-05-10T02:32:20.587Z,989.29
2018-05-10T02:33:30.659Z,989.33
2018-05-10T02:34:40.486Z,989.3
2018-05-10T02:35:50.547Z,989.35
2018-05-10T02:37:00.443Z,989.35
2018-05-10T02:38:10.550Z,989.39
2018-05-10T02:39:20.367Z,989.4
2018-05-10T02:40:30.453Z,989.44
2018-05-10T02:41:40.048Z,989.43
2018-05-10T02:42:50.147Z,989.51
2018-05-10T02:44:00.234Z,989.56
2018-05-10T02:45:10.374Z,989.59
2018-05-10T02:46:20.470Z,989.66
2018-05-10T02:47:30.607Z,989.68
2018-05-10T02:48:40.702Z,989.67
2018-05-10T02:49:50.798Z,989.64
2018-05-10T02:51:00.890Z,989.62
2018-05-10T02:52:10.722Z,989.65
2018-05-10T02:53:20.811Z,989.71
2018-05-10T02:54:30.904Z,989.72
2018-05-10T02:55:41.203Z,989.7
2018-05-10T02:56:52.942Z,989.7
2018-05-10T02:58:03.015Z,989.67
2018-05-10T02:59:12.823Z,989.67
2018-05-10T03:00:22.911Z,989.69
2018-05-10T03:01:33.006Z,989.7
2018-05-10T03:02:43.095Z,989.68
2018-05-10T03:34:16.216Z,990.01
2018-05-10T03:35:26.297Z,990.02
2018-05-10T03:36:36.379Z,990.02
2018-05-10T03:37:46.438Z,990.07
2018-05-10T03:38:56.245Z,990.06
2018-05-10T03:40:06.047Z,990.08
2018-05-10T03:41:16.133Z,990.09
2018-05-10T03:42:26.217Z,990.11
2018-05-10T03:43:36.288Z,990.1
2018-05-10T03:44:46.367Z,990.11
2018-05-10T03:45:56.573Z,990.09
2018-05-10T03:47:06.645Z,990.12
2018-05-10T03:48:16.727Z,990.16
2018-05-10T03:49:26.796Z,990.13
2018-05-10T03:50:36.879Z,990.11
2018-05-10T03:51:46.735Z,990.13
2018-05-10T03:52:56.263Z,990.18
2018-05-10T03:54:06.334Z,990.18
2018-05-10T03:55:16.388Z,990.18
2018-05-10T03:56:25.939Z,990.2
2018-05-10T03:57:36.051Z,990.19
2018-05-10T03:58:46.126Z,990.22
2018-05-10T03:59:56.205Z,990.28
2018-05-10T04:01:06.306Z,990.25
2018-05-10T04:02:16.419Z,990.28
2018-05-10T04:03:26.489Z,990.26
2018-05-10T04:04:36.580Z,990.18
2018-05-10T04:05:46.404Z,990.18
2018-05-10T04:06:56.544Z,990.21
2018-05-10T04:08:06.355Z,990.24
2018-05-10T04:09:16.473Z,990.19
2018-05-10T04:10:26.580Z,990.19
2018-05-10T04:11:36.667Z,990.23
2018-05-10T04:12:46.745Z,990.22
2018-05-10T04:13:56.834Z,990.25
2018-05-10T04:15:06.901Z,990.29
2018-05-10T04:16:16.713Z,990.29
2018-05-10T04:17:26.520Z,990.3
2018-05-10T04:18:36.323Z,990.34
2018-05-10T04:19:46.128Z,990.38
2018-05-10T04:20:56.237Z,990.38
2018-05-10T04:22:06.317Z,990.46
2018-05-10T04:23:16.147Z,990.48
2018-05-10T04:24:26.048Z,990.46
2018-05-10T04:25:36.131Z,990.44
2018-05-10T04:26:45.928Z,990.44
2018-05-10T04:27:56.047Z,990.41
2018-05-10T04:29:06.145Z,990.42
2018-05-10T04:30:16.210Z,990.43
2018-05-10T04:31:25.755Z,990.46
2018-05-10T04:32:35.823Z,990.49
2018-05-10T04:33:45.894Z,990.51
2018-05-10T04:34:55.964Z,990.51
2018-05-10T04:36:05.767Z,990.56
2018-05-10T04:37:15.846Z,990.54
2018-05-10T04:38:25.900Z,990.47
2018-05-10T04:39:35.983Z,990.48
2018-05-10T04:40:46.057Z,990.46
2018-05-10T04:41:56.136Z,990.53
2018-05-10T04:43:05.958Z,990.56
2018-05-10T04:44:16.089Z,990.63
2018-05-10T04:45:25.963Z,990.68
2018-05-10T04:46:36.108Z,990.67
2018-05-10T04:47:45.929Z,990.73
2018-05-10T04:48:56.025Z,990.73
2018-05-10T04:50:06.128Z,990.78
2018-05-10T04:51:16.216Z,990.74
2018-05-10T04:52:26.295Z,990.78
2018-05-10T04:53:36.386Z,990.75
2018-05-10T04:54:46.488Z,990.74
2018-05-10T04:55:56.650Z,990.8
2018-05-10T04:57:06.743Z,990.8
2018-05-10T04:58:16.805Z,990.79
2018-05-10T04:59:26.612Z,990.82
2018-05-10T05:00:36.699Z,990.85
2018-05-10T05:01:46.806Z,990.9
2018-05-10T05:02:56.877Z,990.91
2018-05-10T05:04:06.420Z,991.15
2018-05-10T05:05:16.484Z,991.31
2018-05-10T05:06:26.549Z,991.15
2018-05-10T05:07:36.670Z,991.08
2018-05-10T05:08:46.898Z,991.11
2018-05-10T05:09:57.267Z,991.07
2018-05-10T05:11:07.344Z,991.03
2018-05-10T05:12:17.424Z,991.09
2018-05-10T05:13:27.584Z,991.16
2018-05-10T05:14:37.401Z,991.07
2018-05-10T05:15:47.500Z,991.06
2018-05-10T05:16:57.579Z,991.08
2018-05-10T05:18:07.672Z,991.06
2018-05-10T05:19:17.766Z,991.04
2018-05-10T05:20:27.832Z,991.05
2018-05-10T05:21:37.923Z,991.1
2018-05-10T05:22:47.831Z,991
2018-05-10T05:23:57.903Z,991.03
2018-05-10T05:25:07.785Z,991.1
2018-05-10T05:26:17.614Z,991.15
2018-05-10T05:27:27.419Z,991.19
2018-05-10T05:28:37.504Z,991.15
2018-05-10T05:29:47.596Z,990.82
2018-05-10T05:30:57.735Z,990.83
2018-05-10T05:32:07.807Z,990.81
2018-05-10T05:33:17.623Z,990.82
2018-05-10T05:34:27.805Z,990.83
2018-05-10T05:35:37.722Z,990.82
2018-05-10T05:36:47.938Z,990.83
2018-05-10T05:37:58.012Z,990.87
2018-05-10T05:39:07.825Z,990.82
2018-05-10T05:40:17.673Z,990.86
2018-05-10T05:41:27.864Z,990.92
2018-05-10T05:42:38.109Z,990.93
2018-05-10T05:43:48.200Z,990.96
2018-05-10T05:44:58.284Z,990.92
2018-05-10T05:46:08.367Z,991.01
2018-05-10T05:47:18.466Z,991.02
2018-05-10T05:48:28.297Z,991.02
2018-05-10T05:49:38.112Z,991.04
2018-05-10T05:50:48.195Z,991.05
2018-05-10T05:51:58.272Z,991.03
2018-05-10T05:53:08.350Z,991
2018-05-10T05:54:18.479Z,991.08
2018-05-10T05:55:28.318Z,991.13
2018-05-10T05:56:38.398Z,991.09
2018-05-10T05:57:48.226Z,991.14
2018-05-10T05:58:58.301Z,991.18
2018-05-10T06:00:08.495Z,991.18
2018-05-10T06:01:18.563Z,991.21
2018-05-10T06:02:28.384Z,991.26
2018-05-10T06:03:38.199Z,991.26
2018-05-10T06:04:48.360Z,991.26
2018-05-10T06:05:58.455Z,991.3
2018-05-10T06:07:08.288Z,991.33
2018-05-10T06:08:18.359Z,991.36
2018-05-10T06:09:28.180Z,991.39
2018-05-10T06:10:38.259Z,991.36
2018-05-10T06:11:48.327Z,991.44
2018-05-10T06:12:58.445Z,991.43
2018-05-10T06:14:08.535Z,991.47
2018-05-10T06:15:18.353Z,991.51
2018-05-10T06:16:28.691Z,991.5
2018-05-10T06:17:38.807Z,991.46
2018-05-10T06:18:48.891Z,991.55
2018-05-10T06:19:58.456Z,991.58
2018-05-10T06:21:08.534Z,991.6
2018-05-10T06:22:18.349Z,991.6
2018-05-10T06:23:28.445Z,991.58
2018-05-10T06:24:38.540Z,991.6
2018-05-10T06:25:48.711Z,991.58
2018-05-10T06:26:58.805Z,991.54
2018-05-10T06:28:08.922Z,991.51
2018-05-10T06:29:18.794Z,991.52
2018-05-10T06:30:28.612Z,991.55
2018-05-10T06:31:38.441Z,991.5
2018-05-10T06:32:48.529Z,991.58
2018-05-10T06:33:58.392Z,991.59
2018-05-10T06:35:08.152Z,991.57
2018-05-10T06:36:17.981Z,991.6
2018-05-10T06:37:27.539Z,991.63
2018-05-10T06:38:37.349Z,991.61
2018-05-10T06:39:47.432Z,991.62
2018-05-10T06:40:57.535Z,991.65
2018-05-10T06:42:07.627Z,991.63
2018-05-10T06:43:17.458Z,991.65
2018-05-10T06:44:27.562Z,991.63
2018-05-10T06:45:37.657Z,991.63
2018-05-10T06:46:47.925Z,991.59
2018-05-10T06:47:58.602Z,991.59
2018-05-10T06:49:08.676Z,991.61
2018-05-10T06:50:18.765Z,991.64
2018-05-10T06:51:28.615Z,991.69
2018-05-10T06:52:38.487Z,991.68
2018-05-10T06:53:48.313Z,991.66
2018-05-10T06:54:57.864Z,991.69
2018-05-10T06:56:07.957Z,991.67
2018-05-10T06:57:18.047Z,991.66
2018-05-10T06:58:27.918Z,991.66
2018-05-10T06:59:38.010Z,991.65
2018-05-10T07:00:47.819Z,991.62
2018-05-10T07:01:57.644Z,991.65
2018-05-10T07:03:07.726Z,991.67
2018-05-10T07:04:17.997Z,991.68
2018-05-10T07:05:28.119Z,991.68
2018-05-10T07:06:38.210Z,991.7
2018-05-10T07:07:48.315Z,991.68
2018-05-10T07:08:58.388Z,991.71
2018-05-10T07:10:08.225Z,991.64
2018-05-10T07:11:18.312Z,991.69
2018-05-10T07:12:28.410Z,991.68
2018-05-10T07:13:37.440Z,991.67
2018-05-10T07:14:47.532Z,991.71
2018-05-10T07:15:57.615Z,991.71
2018-05-10T07:17:07.428Z,991.65
2018-05-10T07:18:17.251Z,991.64
2018-05-10T07:19:27.336Z,991.62
2018-05-10T07:20:37.412Z,991.64
2018-05-10T07:21:47.504Z,991.7
2018-05-10T07:22:57.600Z,991.67
2018-05-10T07:24:07.421Z,991.64
2018-05-10T07:25:17.330Z,991.68
2018-05-10T07:26:28.081Z,991.7
2018-05-10T07:27:37.635Z,991.66
2018-05-10T07:28:47.713Z,991.62
2018-05-10T07:29:57.521Z,991.65
2018-05-10T07:31:07.618Z,991.66
2018-05-10T07:32:17.169Z,991.68
2018-05-10T07:33:27.017Z,991.67
2018-05-10T07:34:37.097Z,991.66
2018-05-10T07:35:46.928Z,991.63
2018-05-10T07:36:57.000Z,991.64
2018-05-10T07:38:06.590Z,991.65
2018-05-10T07:39:16.721Z,991.68
2018-05-10T07:40:26.536Z,991.66
2018-05-10T07:41:36.348Z,991.61
2018-05-10T07:42:46.440Z,991.61
2018-05-10T07:43:56.282Z,991.65
2018-05-10T07:45:06.475Z,991.63
2018-05-10T07:46:16.584Z,991.66
2018-05-10T07:47:26.868Z,991.61
2018-05-10T07:48:36.950Z,991.64
2018-05-10T07:49:47.062Z,991.66
2018-05-10T07:50:57.159Z,991.66
2018-05-10T07:52:06.984Z,991.64
2018-05-10T07:53:17.133Z,991.66
2018-05-10T07:54:27.348Z,991.61
2018-05-10T07:55:37.449Z,991.65
2018-05-10T07:56:47.272Z,991.64
2018-05-10T07:57:57.360Z,991.66
2018-05-10T07:59:07.462Z,991.68
2018-05-10T08:00:17.316Z,991.73
2018-05-10T08:01:27.501Z,991.69
2018-05-10T08:02:37.324Z,991.7
2018-05-10T08:03:47.166Z,991.72
2018-05-10T08:04:57.248Z,991.71
2018-05-10T08:06:07.085Z,991.7
2018-05-10T08:07:16.907Z,991.77
2018-05-10T08:08:27.034Z,991.73
2018-05-10T08:09:37.144Z,991.73
2018-05-10T08:10:46.973Z,991.74
2018-05-10T08:11:57.057Z,991.75
2018-05-10T08:13:06.882Z,991.78
2018-05-10T08:14:16.713Z,991.73
2018-05-10T08:15:26.794Z,991.79
2018-05-10T08:16:36.339Z,991.78
2018-05-10T08:17:46.422Z,991.83
2018-05-10T08:18:56.509Z,991.82
2018-05-10T08:20:06.584Z,991.8
2018-05-10T08:21:16.682Z,991.83
2018-05-10T08:22:26.825Z,991.78
2018-05-10T08:23:36.668Z,991.86
2018-05-10T08:24:46.772Z,991.84
2018-05-10T08:25:56.598Z,991.85
2018-05-10T08:27:06.698Z,991.85
2018-05-10T08:28:16.836Z,991.86
2018-05-10T08:29:26.939Z,991.88
2018-05-10T08:30:37.047Z,991.88
2018-05-10T08:31:46.903Z,991.89
2018-05-10T08:32:56.998Z,991.86
2018-05-10T08:34:07.134Z,991.88
2018-05-10T08:35:17.250Z,991.88
2018-05-10T08:36:27.168Z,991.89
2018-05-10T08:37:37.570Z,991.91
2018-05-10T08:38:47.677Z,991.9
2018-05-10T08:39:57.754Z,991.87
2018-05-10T08:41:07.890Z,991.86
2018-05-10T08:42:17.703Z,991.84
2018-05-10T08:43:27.783Z,991.82
2018-05-10T08:44:37.616Z,991.84
2018-05-10T08:45:47.462Z,991.82
2018-05-10T08:46:57.546Z,991.87
2018-05-10T08:48:07.377Z,991.82
2018-05-10T08:49:17.461Z,991.85
2018-05-10T08:50:27.277Z,991.84
2018-05-10T08:51:37.447Z,991.84
2018-05-10T08:52:47.836Z,991.82
2018-05-10T08:53:57.937Z,991.85
2018-05-10T08:55:08.257Z,991.84
2018-05-10T08:56:18.114Z,991.82
2018-05-10T08:57:27.981Z,991.81
2018-05-10T08:58:38.072Z,991.88
2018-05-10T08:59:47.903Z,991.87
2018-05-10T09:00:57.883Z,991.86
2018-05-10T09:02:07.967Z,991.87
2018-05-10T09:03:17.797Z,991.89
2018-05-10T09:04:27.885Z,991.9
2018-05-10T09:05:37.972Z,991.91
2018-05-10T09:06:48.065Z,991.9
2018-05-10T09:07:58.171Z,991.86
2018-05-10T09:09:08.262Z,991.85
2018-05-10T09:10:18.086Z,991.85
2018-05-10T09:11:28.210Z,991.87
2018-05-10T09:12:38.315Z,991.88
2018-05-10T09:13:48.163Z,991.89
2018-05-10T09:14:58.036Z,991.82
2018-05-10T09:16:08.132Z,991.84
2018-05-10T09:17:18.225Z,991.87
2018-05-10T09:18:28.054Z,991.88
2018-05-10T09:19:38.133Z,991.91
2018-05-10T09:20:47.955Z,991.92
2018-05-10T09:21:58.050Z,991.96
2018-05-10T09:23:08.148Z,991.9
2018-05-10T09:24:17.695Z,991.9
2018-05-10T09:25:27.784Z,991.88
2018-05-10T09:26:37.412Z,991.88
2018-05-10T09:27:47.241Z,991.9
2018-05-10T09:28:57.328Z,991.92
2018-05-10T09:30:07.417Z,991.95
2018-05-10T09:31:17.501Z,991.95
2018-05-10T09:32:27.652Z,991.94
2018-05-10T09:33:37.495Z,991.95
2018-05-10T09:34:47.736Z,991.96
2018-05-10T09:35:57.815Z,991.94
2018-05-10T09:37:07.631Z,991.92
2018-05-10T09:38:17.571Z,991.94
2018-05-10T09:39:27.731Z,991.92
2018-05-10T09:40:38.274Z,991.99
2018-05-10T09:41:48.112Z,991.95
2018-05-10T09:42:58.193Z,991.94
2018-05-10T09:44:08.379Z,991.91
2018-05-10T09:45:18.528Z,991.92
2018-05-10T09:46:28.362Z,991.94
2018-05-10T09:47:38.445Z,991.93
2018-05-10T09:48:48.555Z,991.89
2018-05-10T09:49:58.656Z,991.89
2018-05-10T09:51:08.722Z,991.87
2018-05-10T09:52:18.802Z,991.92
2018-05-10T09:53:28.617Z,991.89
2018-05-10T09:54:38.704Z,991.92
2018-05-10T09:55:48.784Z,991.89
2018-05-10T09:56:58.868Z,991.9
2018-05-10T09:58:08.961Z,991.85
2018-05-10T09:59:19.044Z,991.88
2018-05-10T10:00:29.155Z,991.85
2018-05-10T10:01:39.245Z,991.86
2018-05-10T10:02:49.419Z,991.85
2018-05-10T10:03:59.249Z,991.88
2018-05-10T10:05:09.356Z,991.87
2018-05-10T10:06:19.524Z,991.87
2018-05-10T10:07:29.636Z,991.9
2018-05-10T10:08:39.727Z,991.89
2018-05-10T10:09:49.831Z,991.87
2018-05-10T10:10:59.706Z,991.86
2018-05-10T10:12:09.831Z,991.89
2018-05-10T10:13:19.920Z,991.95
2018-05-10T10:14:29.752Z,991.88
2018-05-10T10:15:39.368Z,991.89
2018-05-10T10:16:49.510Z,991.86
2018-05-10T10:17:59.631Z,991.92
2018-05-10T10:19:09.722Z,991.91
2018-05-10T10:20:19.828Z,991.92
2018-05-10T10:21:29.934Z,991.93
2018-05-10T10:22:39.515Z,991.97
2018-05-10T10:23:49.333Z,991.99
2018-05-10T10:24:59.179Z,991.98
2018-05-10T10:26:09.200Z,991.96
2018-05-10T10:27:21.567Z,991.93
2018-05-10T10:28:31.853Z,991.96
2018-05-10T10:29:41.941Z,991.92
2018-05-10T10:30:52.030Z,991.86
2018-05-10T10:32:02.182Z,991.9
2018-05-10T10:33:12.508Z,991.94
2018-05-10T10:34:23.216Z,991.92
2018-05-10T10:35:34.680Z,991.88
2018-05-10T10:36:45.600Z,991.88
2018-05-10T10:37:57.068Z,991.91
2018-05-10T10:39:08.291Z,991.88
2018-05-10T10:40:18.709Z,991.9
2018-05-10T10:41:28.815Z,991.93
2018-05-10T10:42:38.672Z,991.94
2018-05-10T10:43:48.860Z,991.94
2018-05-10T10:44:59.053Z,991.96
2018-05-10T10:46:08.900Z,991.95
2018-05-10T10:47:19.006Z,992
2018-05-10T10:48:29.199Z,991.96
2018-05-10T10:49:39.120Z,991.94
2018-05-10T10:50:48.965Z,991.99
2018-05-10T10:51:59.071Z,992
2018-05-10T10:53:09.207Z,991.96
2018-05-10T10:54:19.778Z,991.97
2018-05-10T10:55:30.065Z,991.94
2018-05-10T10:56:40.270Z,991.94
2018-05-10T10:57:50.616Z,991.94
2018-05-10T10:59:00.739Z,991.9
2018-05-10T11:00:10.889Z,991.9
2018-05-10T11:01:20.981Z,991.9
2018-05-10T11:02:31.080Z,991.9
2018-05-10T11:03:41.203Z,991.9
2018-05-10T11:04:51.317Z,991.89
2018-05-10T11:06:01.409Z,991.87
2018-05-10T11:07:11.267Z,991.92
2018-05-10T11:08:21.358Z,991.87
2018-05-10T11:09:31.727Z,991.86
2018-05-10T11:10:42.143Z,991.85
2018-05-10T11:11:52.972Z,991.89
2018-05-10T11:13:03.541Z,991.9
2018-05-10T11:14:13.929Z,991.85
2018-05-10T11:15:24.530Z,991.91
2018-05-10T11:16:35.244Z,991.88
2018-05-10T11:17:45.633Z,991.9
2018-05-10T11:18:56.245Z,991.83
2018-05-10T11:20:06.362Z,991.85
2018-05-10T11:21:16.476Z,991.84
2018-05-10T11:22:26.920Z,991.79
2018-05-10T11:23:38.179Z,991.77
2018-05-10T11:24:48.826Z,991.75
2018-05-10T11:25:58.961Z,991.8
2018-05-10T11:27:09.071Z,991.75
2018-05-10T11:28:19.403Z,991.75
2018-05-10T11:29:29.504Z,991.77
2018-05-10T11:30:39.595Z,991.77
2018-05-10T11:31:49.422Z,991.78
2018-05-10T11:32:59.275Z,991.77
2018-05-10T11:34:09.639Z,991.8
2018-05-10T11:35:19.752Z,991.81
2018-05-10T11:36:29.870Z,991.87
2018-05-10T11:37:39.971Z,991.89
2018-05-10T11:38:49.877Z,991.92
2018-05-10T11:40:00.019Z,991.87
2018-05-10T11:41:09.847Z,991.91
2018-05-10T11:42:19.700Z,991.88
2018-05-10T11:43:29.029Z,991.91
2018-05-10T11:44:39.132Z,991.89
2018-05-10T11:45:48.984Z,991.88
2018-05-10T11:46:58.567Z,991.86
2018-05-10T11:48:08.679Z,991.87
2018-05-10T11:49:18.531Z,991.85
2018-05-10T11:50:28.459Z,991.83
2018-05-10T11:51:38.348Z,991.82
2018-05-10T11:52:48.482Z,991.81
2018-05-10T11:53:58.585Z,991.82
2018-05-10T11:55:08.722Z,991.83
2018-05-10T11:56:18.830Z,991.83
2018-05-10T11:57:28.714Z,991.77
2018-05-10T11:58:38.823Z,991.75
2018-05-10T11:59:48.920Z,991.75
2018-05-10T12:00:59.029Z,991.64
2018-05-10T12:02:09.168Z,991.62
2018-05-10T12:03:19.280Z,991.61
2018-05-10T12:04:29.375Z,991.65
2018-05-10T12:05:39.523Z,991.69
2018-05-10T12:06:49.619Z,991.59
2018-05-10T12:07:59.732Z,991.67
2018-05-10T12:09:09.621Z,991.7
2018-05-10T12:10:19.731Z,991.62
2018-05-10T12:11:30.052Z,991.65
2018-05-10T12:12:40.137Z,991.71
2018-05-10T12:13:50.274Z,991.74
2018-05-10T12:15:00.379Z,991.75
2018-05-10T12:16:10.491Z,991.73
2018-05-10T12:17:20.320Z,991.67
2018-05-10T12:18:30.430Z,991.68
2018-05-10T12:19:40.541Z,991.71
2018-05-10T12:20:50.436Z,991.71
2018-05-10T12:22:00.285Z,991.67
2018-05-10T12:23:10.442Z,991.67
2018-05-10T12:24:20.286Z,991.71
2018-05-10T12:25:30.129Z,991.71
2018-05-10T12:26:40.369Z,991.71
2018-05-10T12:27:50.466Z,991.71
2018-05-10T12:29:00.587Z,991.72
2018-05-10T12:30:10.692Z,991.75
2018-05-10T12:31:20.839Z,991.72
2018-05-10T12:32:30.938Z,991.72
2018-05-10T12:33:41.046Z,991.66
2018-05-10T12:34:51.150Z,991.68
2018-05-10T12:36:00.741Z,991.68
2018-05-10T12:37:10.867Z,991.71
2018-05-10T12:38:20.982Z,991.73
2018-05-10T12:39:30.842Z,991.76
2018-05-10T12:40:40.694Z,991.76
2018-05-10T12:41:50.548Z,991.77
2018-05-10T12:43:00.744Z,991.76
2018-05-10T12:44:10.693Z,991.73
2018-05-10T12:45:20.532Z,991.74
2018-05-10T12:46:30.627Z,991.73
2018-05-10T12:47:40.726Z,991.76
2018-05-10T12:48:51.111Z,991.71
2018-05-10T12:50:00.960Z,991.74
2018-05-10T12:51:11.051Z,991.75
2018-05-10T12:52:21.141Z,991.67
2018-05-10T12:53:31.228Z,991.68
2018-05-10T12:54:41.317Z,991.72
2018-05-10T12:55:51.457Z,991.73
2018-05-10T12:57:01.299Z,991.69
2018-05-10T12:58:11.419Z,991.73
2018-05-10T12:59:21.237Z,991.68
2018-05-10T13:00:31.072Z,991.66
2018-05-10T13:01:40.916Z,991.68
2018-05-10T13:02:50.788Z,991.7
2018-05-10T13:04:01.176Z,991.68
2018-05-10T13:05:11.265Z,991.68
2018-05-10T13:06:21.346Z,991.71
2018-05-10T13:07:31.453Z,991.68
2018-05-10T13:08:41.267Z,991.73
2018-05-10T13:09:51.360Z,991.76
2018-05-10T13:11:01.455Z,991.74
2018-05-10T13:12:12.164Z,991.77
2018-05-10T13:13:22.450Z,991.74
2018-05-10T13:14:32.727Z,991.72
2018-05-10T13:15:42.848Z,991.76
2018-05-10T13:16:52.664Z,991.71
2018-05-10T13:18:02.755Z,991.71
2018-05-10T13:19:12.597Z,991.73
2018-05-10T13:20:22.852Z,991.71
2018-05-10T13:21:32.928Z,991.73
2018-05-10T13:22:43.220Z,991.71
2018-05-10T13:23:53.308Z,991.68
2018-05-10T13:25:03.426Z,991.64
2018-05-10T13:26:13.524Z,991.69
2018-05-10T13:27:23.643Z,991.66
2018-05-10T13:28:34.033Z,991.6
2018-05-10T13:29:44.150Z,991.68
2018-05-10T13:30:54.248Z,991.67
2018-05-10T13:32:04.071Z,991.64
2018-05-10T13:33:13.892Z,991.63
2018-05-10T13:34:23.712Z,991.62
2018-05-10T13:35:33.797Z,991.6
2018-05-10T13:36:42.842Z,991.63
2018-05-10T13:37:52.680Z,991.64
2018-05-10T13:39:02.529Z,991.57
2018-05-10T13:40:12.348Z,991.65
2018-05-10T13:41:22.179Z,991.61
2018-05-10T13:42:31.747Z,991.59
2018-05-10T13:43:41.583Z,991.58
2018-05-10T13:44:51.422Z,991.6
2018-05-10T13:46:01.778Z,991.57
2018-05-10T13:47:11.979Z,991.61
2018-05-10T13:48:22.277Z,991.57
2018-05-10T13:49:32.358Z,991.61
2018-05-10T13:50:42.463Z,991.58
2018-05-10T13:51:52.283Z,991.59
2018-05-10T13:53:02.477Z,991.58
2018-05-10T13:54:12.869Z,991.54
2018-05-10T13:55:22.688Z,991.57
2018-05-10T13:56:32.256Z,991.49
2018-05-10T13:57:42.347Z,991.48
2018-05-10T13:58:52.466Z,991.49
2018-05-10T14:00:02.866Z,991.47
2018-05-10T14:01:12.964Z,991.4
2018-05-10T14:02:23.154Z,991.39
2018-05-10T14:03:33.247Z,991.39
2018-05-10T14:04:43.374Z,991.42
2018-05-10T14:05:53.257Z,991.4
2018-05-10T14:07:03.383Z,991.39
2018-05-10T14:08:13.204Z,991.4
2018-05-10T14:09:23.081Z,991.41
2018-05-10T14:10:32.919Z,991.42
2018-05-10T14:11:43.076Z,991.44
2018-05-10T14:12:52.647Z,991.48
2018-05-10T14:14:02.755Z,991.48
2018-05-10T14:15:12.339Z,991.46
2018-05-10T14:16:22.446Z,991.42
2018-05-10T14:17:32.225Z,991.41
2018-05-10T14:18:42.070Z,991.49
2018-05-10T14:19:52.161Z,991.48
2018-05-10T14:21:02.246Z,991.51
2018-05-10T14:22:12.084Z,991.5
2018-05-10T14:23:21.904Z,991.52
2018-05-10T14:24:31.761Z,991.63
2018-05-10T14:25:41.867Z,991.59
2018-05-10T14:26:51.965Z,991.67
2018-05-10T14:28:02.090Z,991.69
2018-05-10T14:29:12.236Z,991.7
2018-05-10T14:30:22.429Z,991.69
2018-05-10T14:31:32.744Z,991.7
2018-05-10T14:32:42.897Z,991.62
2018-05-10T14:33:52.868Z,991.69
2018-05-10T14:35:03.038Z,991.66
2018-05-10T14:36:13.116Z,991.63
2018-05-10T14:37:23.020Z,991.66
2018-05-10T14:38:33.112Z,991.68
2018-05-10T14:39:43.247Z,991.63
2018-05-10T14:40:53.084Z,991.64
2018-05-10T14:42:03.175Z,991.67
2018-05-10T14:43:13.276Z,991.71
2018-05-10T14:44:23.371Z,991.67
2018-05-10T14:45:33.481Z,991.7
2018-05-10T14:46:43.345Z,991.72
2018-05-10T14:47:53.585Z,991.71
2018-05-10T14:49:03.461Z,991.71
2018-05-10T14:50:13.575Z,991.78
2018-05-10T14:51:23.693Z,991.76
2018-05-10T14:52:33.927Z,991.77
2018-05-10T14:53:43.764Z,991.79
2018-05-10T14:54:53.844Z,991.78
2018-05-10T14:56:03.933Z,991.84
2018-05-10T14:57:14.113Z,991.82
2018-05-10T14:58:24.268Z,991.9
2018-05-10T14:59:34.356Z,991.87
2018-05-10T15:00:44.389Z,991.94
2018-05-10T15:01:54.491Z,991.92
2018-05-10T15:03:04.584Z,991.96
2018-05-10T15:04:14.708Z,992
2018-05-10T15:05:24.817Z,992.01
2018-05-10T15:06:34.924Z,992.04
2018-05-10T15:07:45.046Z,991.97